Sereno, Missouri
Current Conditions -  °F | °C
As of 12:35 AM on Monday 24 Nov 2014 (Local Time) from KFAM Reporting Station
Broken Clouds Broken Clouds  
Wind Chill: 54°   Ceiling: 6000
Heat Index: 54°   Visibility: 10mi
Dew Point: 52°   Wind: 14mph
Humidity: 94%   Direction: 160°SSE
Pressure: 29.25"   Gusts: 20mph
Location:  37.7127°N, 89.8903°W
Report Text: KFAM 240635Z AUTO 16012G17KT 10SM FEW032 SCT047 BKN060 12/11 A2925 RMK AO1 P0004
Loading
Personal Weather Stations






























Interactive Weather Map New forecast layout! Learn more

10-Day Weather Forecast

Advertisements
Track Severe Weather on mobile